sensor_id;sensor_type;location;lat;lon;timestamp;P1;durP1;ratioP1;P2;durP2;ratioP2
39066;SDS011;24821;51.988;6.020;2022-07-29T00:01:41;10.68;;;10.18;;
39066;SDS011;24821;51.988;6.020;2022-07-29T00:04:07;11.80;;;11.10;;
39066;SDS011;24821;51.988;6.020;2022-07-29T00:06:33;10.75;;;10.25;;
39066;SDS011;24821;51.988;6.020;2022-07-29T00:08:58;11.05;;;10.55;;
39066;SDS011;24821;51.988;6.020;2022-07-29T00:11:24;13.75;;;12.73;;
39066;SDS011;24821;51.988;6.020;2022-07-29T00:13:49;13.45;;;12.75;;
39066;SDS011;24821;51.988;6.020;2022-07-29T00:16:15;12.02;;;11.43;;
39066;SDS011;24821;51.988;6.020;2022-07-29T00:18:41;11.27;;;10.70;;
39066;SDS011;24821;51.988;6.020;2022-07-29T00:21:06;13.70;;;13.10;;
39066;SDS011;24821;51.988;6.020;2022-07-29T00:23:32;15.57;;;14.70;;
39066;SDS011;24821;51.988;6.020;2022-07-29T00:25:57;13.25;;;12.68;;
39066;SDS011;24821;51.988;6.020;2022-07-29T00:28:23;14.10;;;13.35;;
39066;SDS011;24821;51.988;6.020;2022-07-29T00:30:48;14.45;;;13.85;;
39066;SDS011;24821;51.988;6.020;2022-07-29T00:33:14;11.20;;;10.70;;
39066;SDS011;24821;51.988;6.020;2022-07-29T00:35:39;14.45;;;13.68;;
39066;SDS011;24821;51.988;6.020;2022-07-29T00:38:15;13.80;;;13.10;;
39066;SDS011;24821;51.988;6.020;2022-07-29T00:40:42;10.40;;;9.82;;
39066;SDS011;24821;51.988;6.020;2022-07-29T00:43:08;13.98;;;13.38;;
39066;SDS011;24821;51.988;6.020;2022-07-29T00:45:33;10.75;;;10.25;;
39066;SDS011;24821;51.988;6.020;2022-07-29T00:47:59;14.25;;;13.55;;
39066;SDS011;24821;51.988;6.020;2022-07-29T00:50:25;10.70;;;10.10;;
39066;SDS011;24821;51.988;6.020;2022-07-29T00:52:51;12.95;;;12.25;;
39066;SDS011;24821;51.988;6.020;2022-07-29T00:55:17;12.95;;;12.25;;
39066;SDS011;24821;51.988;6.020;2022-07-29T00:57:43;12.73;;;11.88;;
39066;SDS011;24821;51.988;6.020;2022-07-29T01:00:11;11.88;;;11.38;;
39066;SDS011;24821;51.988;6.020;2022-07-29T01:02:44;10.13;;;9.63;;
39066;SDS011;24821;51.988;6.020;2022-07-29T01:05:13;10.73;;;10.05;;
39066;SDS011;24821;51.988;6.020;2022-07-29T01:07:40;11.02;;;10.32;;
39066;SDS011;24821;51.988;6.020;2022-07-29T01:10:07;10.93;;;10.32;;
39066;SDS011;24821;51.988;6.020;2022-07-29T01:12:36;10.43;;;9.93;;
39066;SDS011;24821;51.988;6.020;2022-07-29T01:15:03;9.35;;;8.77;;
39066;SDS011;24821;51.988;6.020;2022-07-29T01:23:11;9.27;;;8.77;;
39066;SDS011;24821;51.988;6.020;2022-07-29T01:31:15;10.90;;;10.27;;
39066;SDS011;24821;51.988;6.020;2022-07-29T01:33:45;10.52;;;9.80;;
39066;SDS011;24821;51.988;6.020;2022-07-29T01:36:19;11.88;;;11.27;;
39066;SDS011;24821;51.988;6.020;2022-07-29T01:39:08;9.85;;;9.25;;
39066;SDS011;24821;51.988;6.020;2022-07-29T01:41:45;9.98;;;9.48;;
39066;SDS011;24821;51.988;6.020;2022-07-29T01:44:20;9.93;;;9.45;;
39066;SDS011;24821;51.988;6.020;2022-07-29T01:46:52;9.57;;;9.07;;
39066;SDS011;24821;51.988;6.020;2022-07-29T01:49:22;9.30;;;8.80;;
39066;SDS011;24821;51.988;6.020;2022-07-29T01:51:57;10.63;;;9.93;;
39066;SDS011;24821;51.988;6.020;2022-07-29T01:54:38;11.02;;;10.52;;
39066;SDS011;24821;51.988;6.020;2022-07-29T01:57:08;10.45;;;9.85;;
39066;SDS011;24821;51.988;6.020;2022-07-29T01:59:36;11.55;;;10.93;;
39066;SDS011;24821;51.988;6.020;2022-07-29T02:02:03;13.27;;;12.68;;
39066;SDS011;24821;51.988;6.020;2022-07-29T02:04:33;12.07;;;11.48;;
39066;SDS011;24821;51.988;6.020;2022-07-29T02:07:02;13.52;;;12.82;;
39066;SDS011;24821;51.988;6.020;2022-07-29T02:09:30;13.10;;;12.55;;
39066;SDS011;24821;51.988;6.020;2022-07-29T02:11:57;13.27;;;12.68;;
39066;SDS011;24821;51.988;6.020;2022-07-29T02:14:26;14.70;;;14.02;;
39066;SDS011;24821;51.988;6.020;2022-07-29T02:16:55;16.63;;;15.73;;
39066;SDS011;24821;51.988;6.020;2022-07-29T02:19:23;17.63;;;16.75;;
39066;SDS011;24821;51.988;6.020;2022-07-29T02:21:52;14.85;;;14.18;;
39066;SDS011;24821;51.988;6.020;2022-07-29T02:24:19;15.27;;;14.52;;
39066;SDS011;24821;51.988;6.020;2022-07-29T02:26:47;13.23;;;12.40;;
39066;SDS011;24821;51.988;6.020;2022-07-29T02:29:14;17.25;;;16.55;;
39066;SDS011;24821;51.988;6.020;2022-07-29T02:31:41;19.70;;;18.90;;
39066;SDS011;24821;51.988;6.020;2022-07-29T02:34:09;20.27;;;19.33;;
39066;SDS011;24821;51.988;6.020;2022-07-29T02:36:36;19.60;;;18.63;;
39066;SDS011;24821;51.988;6.020;2022-07-29T02:39:03;20.75;;;19.65;;
39066;SDS011;24821;51.988;6.020;2022-07-29T02:41:40;15.80;;;15.00;;
39066;SDS011;24821;51.988;6.020;2022-07-29T02:44:12;18.35;;;17.55;;
39066;SDS011;24821;51.988;6.020;2022-07-29T02:46:53;20.10;;;18.95;;
39066;SDS011;24821;51.988;6.020;2022-07-29T02:49:36;19.55;;;18.55;;
39066;SDS011;24821;51.988;6.020;2022-07-29T02:52:18;13.18;;;12.57;;
39066;SDS011;24821;51.988;6.020;2022-07-29T02:54:55;12.38;;;11.88;;
39066;SDS011;24821;51.988;6.020;2022-07-29T02:57:46;10.30;;;9.90;;
39066;SDS011;24821;51.988;6.020;2022-07-29T03:00:16;9.88;;;9.48;;
39066;SDS011;24821;51.988;6.020;2022-07-29T03:02:44;10.90;;;10.40;;
39066;SDS011;24821;51.988;6.020;2022-07-29T03:05:15;10.75;;;10.23;;
39066;SDS011;24821;51.988;6.020;2022-07-29T03:07:48;13.07;;;12.40;;
39066;SDS011;24821;51.988;6.020;2022-07-29T03:10:17;12.73;;;12.15;;
39066;SDS011;24821;51.988;6.020;2022-07-29T03:12:43;14.50;;;13.80;;
39066;SDS011;24821;51.988;6.020;2022-07-29T03:15:09;19.67;;;18.67;;
39066;SDS011;24821;51.988;6.020;2022-07-29T03:17:35;24.35;;;23.15;;
39066;SDS011;24821;51.988;6.020;2022-07-29T03:20:02;25.58;;;24.48;;
39066;SDS011;24821;51.988;6.020;2022-07-29T03:22:29;28.33;;;27.02;;
39066;SDS011;24821;51.988;6.020;2022-07-29T03:24:55;27.20;;;25.95;;
39066;SDS011;24821;51.988;6.020;2022-07-29T03:27:21;28.95;;;27.50;;
39066;SDS011;24821;51.988;6.020;2022-07-29T03:29:47;25.10;;;24.02;;
39066;SDS011;24821;51.988;6.020;2022-07-29T03:32:12;21.13;;;20.02;;
39066;SDS011;24821;51.988;6.020;2022-07-29T03:34:38;18.05;;;16.52;;
39066;SDS011;24821;51.988;6.020;2022-07-29T03:37:03;22.52;;;21.52;;
39066;SDS011;24821;51.988;6.020;2022-07-29T03:39:31;20.65;;;19.48;;
39066;SDS011;24821;51.988;6.020;2022-07-29T03:42:01;20.58;;;19.60;;
39066;SDS011;24821;51.988;6.020;2022-07-29T03:44:28;19.80;;;18.60;;
39066;SDS011;24821;51.988;6.020;2022-07-29T03:46:55;19.80;;;18.83;;
39066;SDS011;24821;51.988;6.020;2022-07-29T03:49:24;17.55;;;16.65;;
39066;SDS011;24821;51.988;6.020;2022-07-29T03:51:51;17.15;;;16.25;;
39066;SDS011;24821;51.988;6.020;2022-07-29T03:54:17;17.85;;;16.85;;
39066;SDS011;24821;51.988;6.020;2022-07-29T03:56:43;22.85;;;21.52;;
39066;SDS011;24821;51.988;6.020;2022-07-29T03:59:12;23.23;;;22.00;;
39066;SDS011;24821;51.988;6.020;2022-07-29T04:01:40;22.92;;;21.83;;
39066;SDS011;24821;51.988;6.020;2022-07-29T04:04:06;23.38;;;22.23;;
39066;SDS011;24821;51.988;6.020;2022-07-29T04:06:43;19.02;;;18.02;;
39066;SDS011;24821;51.988;6.020;2022-07-29T04:09:09;22.40;;;21.20;;
39066;SDS011;24821;51.988;6.020;2022-07-29T04:11:36;18.67;;;17.75;;
39066;SDS011;24821;51.988;6.020;2022-07-29T04:14:03;19.67;;;18.60;;
39066;SDS011;24821;51.988;6.020;2022-07-29T04:16:29;20.15;;;19.13;;
39066;SDS011;24821;51.988;6.020;2022-07-29T04:18:54;19.80;;;18.67;;
39066;SDS011;24821;51.988;6.020;2022-07-29T04:21:20;17.73;;;16.52;;
39066;SDS011;24821;51.988;6.020;2022-07-29T04:23:45;15.20;;;14.50;;
39066;SDS011;24821;51.988;6.020;2022-07-29T04:26:14;16.13;;;15.35;;
39066;SDS011;24821;51.988;6.020;2022-07-29T04:28:40;19.67;;;18.48;;
39066;SDS011;24821;51.988;6.020;2022-07-29T04:31:07;16.23;;;15.43;;
39066;SDS011;24821;51.988;6.020;2022-07-29T04:33:33;23.20;;;21.80;;
39066;SDS011;24821;51.988;6.020;2022-07-29T04:35:59;19.50;;;18.50;;
39066;SDS011;24821;51.988;6.020;2022-07-29T04:38:24;16.75;;;15.75;;
39066;SDS011;24821;51.988;6.020;2022-07-29T04:40:50;16.75;;;15.95;;
39066;SDS011;24821;51.988;6.020;2022-07-29T04:43:15;14.07;;;13.38;;
39066;SDS011;24821;51.988;6.020;2022-07-29T04:45:41;15.85;;;14.80;;
39066;SDS011;24821;51.988;6.020;2022-07-29T04:48:06;14.68;;;13.82;;
39066;SDS011;24821;51.988;6.020;2022-07-29T04:50:32;13.85;;;13.25;;
39066;SDS011;24821;51.988;6.020;2022-07-29T04:52:58;12.80;;;12.10;;
39066;SDS011;24821;51.988;6.020;2022-07-29T04:55:23;20.70;;;19.80;;
39066;SDS011;24821;51.988;6.020;2022-07-29T04:57:49;13.55;;;12.82;;
39066;SDS011;24821;51.988;6.020;2022-07-29T05:00:15;13.13;;;12.30;;
39066;SDS011;24821;51.988;6.020;2022-07-29T05:02:41;15.48;;;14.70;;
39066;SDS011;24821;51.988;6.020;2022-07-29T05:05:06;14.43;;;13.63;;
39066;SDS011;24821;51.988;6.020;2022-07-29T05:07:32;13.15;;;12.45;;
39066;SDS011;24821;51.988;6.020;2022-07-29T05:09:58;14.95;;;14.15;;
39066;SDS011;24821;51.988;6.020;2022-07-29T05:12:24;13.73;;;12.65;;
39066;SDS011;24821;51.988;6.020;2022-07-29T05:14:50;12.98;;;12.23;;
39066;SDS011;24821;51.988;6.020;2022-07-29T05:17:15;12.48;;;11.93;;
39066;SDS011;24821;51.988;6.020;2022-07-29T05:19:41;15.60;;;14.70;;
39066;SDS011;24821;51.988;6.020;2022-07-29T05:22:07;12.63;;;11.93;;
39066;SDS011;24821;51.988;6.020;2022-07-29T05:24:32;11.88;;;11.27;;
39066;SDS011;24821;51.988;6.020;2022-07-29T05:26:58;14.43;;;13.73;;
39066;SDS011;24821;51.988;6.020;2022-07-29T05:29:23;15.55;;;14.85;;
39066;SDS011;24821;51.988;6.020;2022-07-29T05:31:49;17.20;;;16.45;;
39066;SDS011;24821;51.988;6.020;2022-07-29T05:34:16;12.43;;;11.82;;
39066;SDS011;24821;51.988;6.020;2022-07-29T05:36:41;11.73;;;11.13;;
39066;SDS011;24821;51.988;6.020;2022-07-29T05:39:07;15.18;;;14.45;;
39066;SDS011;24821;51.988;6.020;2022-07-29T05:41:33;16.25;;;15.55;;
39066;SDS011;24821;51.988;6.020;2022-07-29T05:43:58;12.60;;;11.98;;
39066;SDS011;24821;51.988;6.020;2022-07-29T05:46:24;12.20;;;11.63;;
39066;SDS011;24821;51.988;6.020;2022-07-29T05:48:49;13.23;;;12.63;;
39066;SDS011;24821;51.988;6.020;2022-07-29T05:51:15;14.40;;;13.70;;
39066;SDS011;24821;51.988;6.020;2022-07-29T05:53:40;12.88;;;12.15;;
39066;SDS011;24821;51.988;6.020;2022-07-29T05:56:06;24.10;;;22.80;;
39066;SDS011;24821;51.988;6.020;2022-07-29T05:58:32;13.40;;;12.75;;
39066;SDS011;24821;51.988;6.020;2022-07-29T06:00:58;15.13;;;14.23;;
39066;SDS011;24821;51.988;6.020;2022-07-29T06:03:24;17.70;;;16.80;;
39066;SDS011;24821;51.988;6.020;2022-07-29T06:05:50;15.93;;;15.20;;
39066;SDS011;24821;51.988;6.020;2022-07-29T06:08:16;15.63;;;14.82;;
39066;SDS011;24821;51.988;6.020;2022-07-29T06:10:42;16.40;;;15.45;;
39066;SDS011;24821;51.988;6.020;2022-07-29T06:13:08;16.77;;;15.90;;
39066;SDS011;24821;51.988;6.020;2022-07-29T06:15:34;16.40;;;15.40;;
39066;SDS011;24821;51.988;6.020;2022-07-29T06:17:59;16.10;;;15.40;;
39066;SDS011;24821;51.988;6.020;2022-07-29T06:20:25;20.23;;;19.05;;
39066;SDS011;24821;51.988;6.020;2022-07-29T06:22:51;15.93;;;15.13;;
39066;SDS011;24821;51.988;6.020;2022-07-29T06:25:17;15.80;;;14.95;;
39066;SDS011;24821;51.988;6.020;2022-07-29T06:27:43;16.92;;;16.15;;
39066;SDS011;24821;51.988;6.020;2022-07-29T06:30:08;15.45;;;14.75;;
39066;SDS011;24821;51.988;6.020;2022-07-29T06:32:35;15.00;;;14.23;;
39066;SDS011;24821;51.988;6.020;2022-07-29T06:35:00;13.73;;;13.13;;
39066;SDS011;24821;51.988;6.020;2022-07-29T06:37:26;14.25;;;13.50;;
39066;SDS011;24821;51.988;6.020;2022-07-29T06:39:51;14.82;;;13.88;;
39066;SDS011;24821;51.988;6.020;2022-07-29T06:42:37;13.25;;;12.65;;
39066;SDS011;24821;51.988;6.020;2022-07-29T06:45:04;12.75;;;12.05;;
39066;SDS011;24821;51.988;6.020;2022-07-29T06:47:30;12.88;;;12.27;;
39066;SDS011;24821;51.988;6.020;2022-07-29T06:49:56;13.75;;;12.85;;
39066;SDS011;24821;51.988;6.020;2022-07-29T06:52:22;15.15;;;14.38;;
39066;SDS011;24821;51.988;6.020;2022-07-29T06:54:47;17.42;;;16.45;;
39066;SDS011;24821;51.988;6.020;2022-07-29T06:57:13;16.35;;;15.45;;
39066;SDS011;24821;51.988;6.020;2022-07-29T06:59:39;15.45;;;14.75;;
39066;SDS011;24821;51.988;6.020;2022-07-29T07:02:04;19.17;;;18.33;;
39066;SDS011;24821;51.988;6.020;2022-07-29T07:04:30;18.83;;;17.92;;
39066;SDS011;24821;51.988;6.020;2022-07-29T07:06:56;17.67;;;16.77;;
39066;SDS011;24821;51.988;6.020;2022-07-29T07:09:22;14.43;;;13.80;;
39066;SDS011;24821;51.988;6.020;2022-07-29T07:11:48;14.10;;;13.40;;
39066;SDS011;24821;51.988;6.020;2022-07-29T07:14:13;13.18;;;12.48;;
39066;SDS011;24821;51.988;6.020;2022-07-29T07:16:39;17.17;;;16.38;;
39066;SDS011;24821;51.988;6.020;2022-07-29T07:19:04;13.65;;;13.05;;
39066;SDS011;24821;51.988;6.020;2022-07-29T07:21:30;12.80;;;12.18;;
39066;SDS011;24821;51.988;6.020;2022-07-29T07:23:57;12.27;;;11.60;;
39066;SDS011;24821;51.988;6.020;2022-07-29T07:26:24;13.98;;;13.30;;
39066;SDS011;24821;51.988;6.020;2022-07-29T07:28:50;10.95;;;10.35;;
39066;SDS011;24821;51.988;6.020;2022-07-29T07:31:15;12.07;;;10.95;;
39066;SDS011;24821;51.988;6.020;2022-07-29T07:33:41;11.15;;;10.60;;
39066;SDS011;24821;51.988;6.020;2022-07-29T07:36:06;12.35;;;11.75;;
39066;SDS011;24821;51.988;6.020;2022-07-29T07:38:32;9.73;;;9.23;;
39066;SDS011;24821;51.988;6.020;2022-07-29T07:40:57;10.30;;;9.80;;
39066;SDS011;24821;51.988;6.020;2022-07-29T07:43:23;10.18;;;9.52;;
39066;SDS011;24821;51.988;6.020;2022-07-29T07:45:49;10.40;;;9.73;;
39066;SDS011;24821;51.988;6.020;2022-07-29T07:48:14;10.70;;;10.00;;
39066;SDS011;24821;51.988;6.020;2022-07-29T07:50:40;9.13;;;8.63;;
39066;SDS011;24821;51.988;6.020;2022-07-29T07:53:05;8.77;;;8.27;;
39066;SDS011;24821;51.988;6.020;2022-07-29T07:55:31;6.63;;;6.13;;
39066;SDS011;24821;51.988;6.020;2022-07-29T07:57:57;9.07;;;8.57;;
39066;SDS011;24821;51.988;6.020;2022-07-29T08:00:22;6.60;;;6.30;;
39066;SDS011;24821;51.988;6.020;2022-07-29T08:02:48;7.03;;;6.63;;
39066;SDS011;24821;51.988;6.020;2022-07-29T08:05:14;8.75;;;8.25;;
39066;SDS011;24821;51.988;6.020;2022-07-29T08:07:42;7.30;;;6.90;;
39066;SDS011;24821;51.988;6.020;2022-07-29T08:10:09;7.22;;;6.85;;
39066;SDS011;24821;51.988;6.020;2022-07-29T08:12:35;7.55;;;7.15;;
39066;SDS011;24821;51.988;6.020;2022-07-29T08:15:00;8.18;;;7.57;;
39066;SDS011;24821;51.988;6.020;2022-07-29T08:17:26;8.35;;;7.75;;
39066;SDS011;24821;51.988;6.020;2022-07-29T08:19:52;7.63;;;7.13;;
39066;SDS011;24821;51.988;6.020;2022-07-29T08:22:17;7.47;;;7.07;;
39066;SDS011;24821;51.988;6.020;2022-07-29T08:24:43;9.02;;;8.43;;
39066;SDS011;24821;51.988;6.020;2022-07-29T08:27:09;8.85;;;8.20;;
39066;SDS011;24821;51.988;6.020;2022-07-29T08:29:35;9.85;;;9.35;;
39066;SDS011;24821;51.988;6.020;2022-07-29T08:32:01;8.88;;;8.45;;
39066;SDS011;24821;51.988;6.020;2022-07-29T08:34:28;9.05;;;8.38;;
39066;SDS011;24821;51.988;6.020;2022-07-29T08:36:54;9.88;;;9.27;;
39066;SDS011;24821;51.988;6.020;2022-07-29T08:39:20;8.00;;;7.70;;
39066;SDS011;24821;51.988;6.020;2022-07-29T08:41:47;8.02;;;7.63;;
39066;SDS011;24821;51.988;6.020;2022-07-29T08:44:13;8.90;;;8.25;;
39066;SDS011;24821;51.988;6.020;2022-07-29T08:46:41;7.47;;;7.07;;
39066;SDS011;24821;51.988;6.020;2022-07-29T08:49:07;7.20;;;6.70;;
39066;SDS011;24821;51.988;6.020;2022-07-29T08:51:32;7.45;;;6.93;;
39066;SDS011;24821;51.988;6.020;2022-07-29T08:54:00;8.27;;;7.88;;
39066;SDS011;24821;51.988;6.020;2022-07-29T08:56:26;7.53;;;7.13;;
39066;SDS011;24821;51.988;6.020;2022-07-29T08:58:52;7.75;;;7.25;;
39066;SDS011;24821;51.988;6.020;2022-07-29T09:01:23;8.68;;;7.97;;
39066;SDS011;24821;51.988;6.020;2022-07-29T09:03:50;6.32;;;5.93;;
39066;SDS011;24821;51.988;6.020;2022-07-29T09:06:21;6.50;;;6.10;;
39066;SDS011;24821;51.988;6.020;2022-07-29T09:08:50;7.50;;;6.88;;
39066;SDS011;24821;51.988;6.020;2022-07-29T09:11:16;7.38;;;6.97;;
39066;SDS011;24821;51.988;6.020;2022-07-29T09:13:42;6.22;;;5.72;;
39066;SDS011;24821;51.988;6.020;2022-07-29T09:16:07;7.63;;;7.22;;
39066;SDS011;24821;51.988;6.020;2022-07-29T09:21:03;7.30;;;6.82;;
39066;SDS011;24821;51.988;6.020;2022-07-29T09:26:30;6.88;;;6.40;;
39066;SDS011;24821;51.988;6.020;2022-07-29T09:28:57;7.43;;;7.03;;
39066;SDS011;24821;51.988;6.020;2022-07-29T09:31:31;8.20;;;7.70;;
39066;SDS011;24821;51.988;6.020;2022-07-29T09:33:59;8.82;;;8.32;;
39066;SDS011;24821;51.988;6.020;2022-07-29T09:36:25;7.75;;;7.15;;
39066;SDS011;24821;51.988;6.020;2022-07-29T09:39:00;7.80;;;7.38;;
39066;SDS011;24821;51.988;6.020;2022-07-29T09:41:27;7.05;;;6.55;;
39066;SDS011;24821;51.988;6.020;2022-07-29T09:43:56;7.68;;;7.18;;
39066;SDS011;24821;51.988;6.020;2022-07-29T09:46:23;7.60;;;7.18;;
39066;SDS011;24821;51.988;6.020;2022-07-29T09:51:39;8.15;;;7.55;;
39066;SDS011;24821;51.988;6.020;2022-07-29T09:54:21;8.00;;;7.60;;
39066;SDS011;24821;51.988;6.020;2022-07-29T09:56:51;9.32;;;8.82;;
39066;SDS011;24821;51.988;6.020;2022-07-29T09:59:18;7.38;;;6.88;;
39066;SDS011;24821;51.988;6.020;2022-07-29T10:01:51;8.75;;;8.18;;
39066;SDS011;24821;51.988;6.020;2022-07-29T10:04:17;9.13;;;8.50;;
39066;SDS011;24821;51.988;6.020;2022-07-29T10:07:04;8.85;;;8.30;;
39066;SDS011;24821;51.988;6.020;2022-07-29T10:09:30;8.10;;;7.57;;
39066;SDS011;24821;51.988;6.020;2022-07-29T10:12:03;7.82;;;7.43;;
39066;SDS011;24821;51.988;6.020;2022-07-29T10:14:38;10.15;;;9.30;;
39066;SDS011;24821;51.988;6.020;2022-07-29T10:17:04;9.70;;;9.00;;
39066;SDS011;24821;51.988;6.020;2022-07-29T10:19:31;11.98;;;11.38;;
39066;SDS011;24821;51.988;6.020;2022-07-29T10:21:59;12.23;;;11.63;;
39066;SDS011;24821;51.988;6.020;2022-07-29T10:24:26;9.30;;;8.80;;
39066;SDS011;24821;51.988;6.020;2022-07-29T10:26:54;9.65;;;9.05;;
39066;SDS011;24821;51.988;6.020;2022-07-29T10:29:20;10.15;;;9.52;;
39066;SDS011;24821;51.988;6.020;2022-07-29T10:34:44;14.30;;;13.50;;
39066;SDS011;24821;51.988;6.020;2022-07-29T10:40:27;15.25;;;14.50;;
39066;SDS011;24821;51.988;6.020;2022-07-29T10:43:29;13.82;;;13.13;;
39066;SDS011;24821;51.988;6.020;2022-07-29T10:46:01;11.10;;;10.50;;
39066;SDS011;24821;51.988;6.020;2022-07-29T10:48:28;11.57;;;10.98;;
39066;SDS011;24821;51.988;6.020;2022-07-29T10:50:57;8.32;;;7.82;;
39066;SDS011;24821;51.988;6.020;2022-07-29T10:56:24;7.35;;;6.90;;
39066;SDS011;24821;51.988;6.020;2022-07-29T11:01:48;7.95;;;7.50;;
39066;SDS011;24821;51.988;6.020;2022-07-29T11:04:16;8.70;;;8.20;;
39066;SDS011;24821;51.988;6.020;2022-07-29T11:09:27;7.15;;;6.57;;
39066;SDS011;24821;51.988;6.020;2022-07-29T11:11:55;8.35;;;7.70;;
39066;SDS011;24821;51.988;6.020;2022-07-29T11:17:18;7.25;;;6.78;;
39066;SDS011;24821;51.988;6.020;2022-07-29T11:19:43;7.15;;;6.78;;
39066;SDS011;24821;51.988;6.020;2022-07-29T11:22:10;6.50;;;6.07;;
39066;SDS011;24821;51.988;6.020;2022-07-29T11:24:37;8.40;;;7.88;;
39066;SDS011;24821;51.988;6.020;2022-07-29T11:27:06;8.10;;;7.65;;
39066;SDS011;24821;51.988;6.020;2022-07-29T11:29:32;9.63;;;9.02;;
39066;SDS011;24821;51.988;6.020;2022-07-29T11:32:11;6.35;;;5.78;;
39066;SDS011;24821;51.988;6.020;2022-07-29T11:34:43;6.47;;;5.90;;
39066;SDS011;24821;51.988;6.020;2022-07-29T11:39:41;8.43;;;7.65;;
39066;SDS011;24821;51.988;6.020;2022-07-29T11:44:59;7.00;;;6.50;;
39066;SDS011;24821;51.988;6.020;2022-07-29T11:47:30;8.40;;;7.90;;
39066;SDS011;24821;51.988;6.020;2022-07-29T11:49:57;6.97;;;6.45;;
39066;SDS011;24821;51.988;6.020;2022-07-29T11:52:23;5.55;;;5.15;;
39066;SDS011;24821;51.988;6.020;2022-07-29T11:55:12;7.82;;;7.22;;
39066;SDS011;24821;51.988;6.020;2022-07-29T11:57:49;8.93;;;8.43;;
39066;SDS011;24821;51.988;6.020;2022-07-29T12:03:06;5.95;;;5.65;;
39066;SDS011;24821;51.988;6.020;2022-07-29T12:05:43;7.32;;;6.93;;
39066;SDS011;24821;51.988;6.020;2022-07-29T12:10:39;13.32;;;6.15;;
39066;SDS011;24821;51.988;6.020;2022-07-29T12:13:05;5.90;;;5.60;;
39066;SDS011;24821;51.988;6.020;2022-07-29T12:15:31;6.70;;;6.30;;
39066;SDS011;24821;51.988;6.020;2022-07-29T12:17:57;7.10;;;6.80;;
39066;SDS011;24821;51.988;6.020;2022-07-29T12:20:23;5.07;;;4.78;;
39066;SDS011;24821;51.988;6.020;2022-07-29T12:22:54;6.05;;;5.70;;
39066;SDS011;24821;51.988;6.020;2022-07-29T12:25:21;6.15;;;5.72;;
39066;SDS011;24821;51.988;6.020;2022-07-29T12:27:57;5.43;;;5.07;;
39066;SDS011;24821;51.988;6.020;2022-07-29T12:30:40;4.45;;;4.07;;
39066;SDS011;24821;51.988;6.020;2022-07-29T12:33:23;4.85;;;4.50;;
39066;SDS011;24821;51.988;6.020;2022-07-29T12:35:50;3.85;;;3.65;;
39066;SDS011;24821;51.988;6.020;2022-07-29T12:38:18;5.82;;;5.43;;
39066;SDS011;24821;51.988;6.020;2022-07-29T12:40:45;3.67;;;3.47;;
39066;SDS011;24821;51.988;6.020;2022-07-29T12:43:15;3.20;;;3.03;;
39066;SDS011;24821;51.988;6.020;2022-07-29T12:45:46;3.90;;;3.70;;
39066;SDS011;24821;51.988;6.020;2022-07-29T12:48:17;3.38;;;3.17;;
39066;SDS011;24821;51.988;6.020;2022-07-29T12:50:57;4.15;;;3.95;;
39066;SDS011;24821;51.988;6.020;2022-07-29T12:53:27;5.53;;;5.22;;
39066;SDS011;24821;51.988;6.020;2022-07-29T12:55:54;4.85;;;4.55;;
39066;SDS011;24821;51.988;6.020;2022-07-29T13:01:09;4.20;;;3.90;;
39066;SDS011;24821;51.988;6.020;2022-07-29T13:06:28;5.18;;;4.75;;
39066;SDS011;24821;51.988;6.020;2022-07-29T13:09:13;4.57;;;4.18;;
39066;SDS011;24821;51.988;6.020;2022-07-29T13:11:44;4.22;;;3.92;;
39066;SDS011;24821;51.988;6.020;2022-07-29T13:14:12;3.97;;;3.78;;
39066;SDS011;24821;51.988;6.020;2022-07-29T13:17:05;4.00;;;3.60;;
39066;SDS011;24821;51.988;6.020;2022-07-29T13:19:45;3.97;;;3.78;;
39066;SDS011;24821;51.988;6.020;2022-07-29T13:22:11;4.00;;;3.70;;
39066;SDS011;24821;51.988;6.020;2022-07-29T13:24:46;4.45;;;4.15;;
39066;SDS011;24821;51.988;6.020;2022-07-29T13:27:16;4.32;;;4.03;;
39066;SDS011;24821;51.988;6.020;2022-07-29T13:29:43;4.70;;;4.40;;
39066;SDS011;24821;51.988;6.020;2022-07-29T13:32:09;4.28;;;4.00;;
39066;SDS011;24821;51.988;6.020;2022-07-29T13:34:34;4.50;;;4.20;;
39066;SDS011;24821;51.988;6.020;2022-07-29T13:37:00;4.68;;;4.47;;
39066;SDS011;24821;51.988;6.020;2022-07-29T13:39:25;5.85;;;4.18;;
39066;SDS011;24821;51.988;6.020;2022-07-29T13:41:51;5.20;;;4.82;;
39066;SDS011;24821;51.988;6.020;2022-07-29T13:44:16;4.57;;;4.38;;
39066;SDS011;24821;51.988;6.020;2022-07-29T13:46:42;4.30;;;3.90;;
39066;SDS011;24821;51.988;6.020;2022-07-29T13:49:07;3.75;;;3.65;;
39066;SDS011;24821;51.988;6.020;2022-07-29T13:51:33;4.10;;;3.90;;
39066;SDS011;24821;51.988;6.020;2022-07-29T13:53:58;4.03;;;3.83;;
39066;SDS011;24821;51.988;6.020;2022-07-29T13:56:24;4.05;;;3.88;;
39066;SDS011;24821;51.988;6.020;2022-07-29T13:58:49;4.78;;;4.57;;
39066;SDS011;24821;51.988;6.020;2022-07-29T14:01:15;3.92;;;3.72;;
39066;SDS011;24821;51.988;6.020;2022-07-29T14:03:41;3.72;;;3.53;;
39066;SDS011;24821;51.988;6.020;2022-07-29T14:06:08;4.57;;;4.38;;
39066;SDS011;24821;51.988;6.020;2022-07-29T14:08:33;3.88;;;3.70;;
39066;SDS011;24821;51.988;6.020;2022-07-29T14:10:59;3.58;;;3.38;;
39066;SDS011;24821;51.988;6.020;2022-07-29T14:13:24;4.18;;;3.97;;
39066;SDS011;24821;51.988;6.020;2022-07-29T14:15:50;4.93;;;4.55;;
39066;SDS011;24821;51.988;6.020;2022-07-29T14:18:15;4.13;;;3.92;;
39066;SDS011;24821;51.988;6.020;2022-07-29T14:20:41;6.28;;;5.97;;
39066;SDS011;24821;51.988;6.020;2022-07-29T14:23:06;6.07;;;5.68;;
39066;SDS011;24821;51.988;6.020;2022-07-29T14:25:32;4.10;;;3.80;;
39066;SDS011;24821;51.988;6.020;2022-07-29T14:27:58;6.00;;;5.60;;
39066;SDS011;24821;51.988;6.020;2022-07-29T14:30:23;4.20;;;4.03;;
39066;SDS011;24821;51.988;6.020;2022-07-29T14:32:49;4.22;;;4.03;;
39066;SDS011;24821;51.988;6.020;2022-07-29T14:35:14;3.47;;;3.28;;
39066;SDS011;24821;51.988;6.020;2022-07-29T14:37:40;4.00;;;3.80;;
39066;SDS011;24821;51.988;6.020;2022-07-29T14:40:06;3.97;;;3.67;;
39066;SDS011;24821;51.988;6.020;2022-07-29T14:42:33;3.20;;;3.05;;
39066;SDS011;24821;51.988;6.020;2022-07-29T14:44:59;5.50;;;5.20;;
39066;SDS011;24821;51.988;6.020;2022-07-29T14:47:24;6.78;;;6.38;;
39066;SDS011;24821;51.988;6.020;2022-07-29T14:49:50;4.25;;;4.05;;
39066;SDS011;24821;51.988;6.020;2022-07-29T14:52:15;4.95;;;4.50;;
39066;SDS011;24821;51.988;6.020;2022-07-29T14:54:41;5.05;;;4.85;;
39066;SDS011;24821;51.988;6.020;2022-07-29T14:57:06;4.68;;;4.47;;
39066;SDS011;24821;51.988;6.020;2022-07-29T14:59:32;5.25;;;4.95;;
39066;SDS011;24821;51.988;6.020;2022-07-29T15:01:57;4.05;;;3.78;;
39066;SDS011;24821;51.988;6.020;2022-07-29T15:04:23;5.20;;;5.00;;
39066;SDS011;24821;51.988;6.020;2022-07-29T15:06:49;5.60;;;5.20;;
39066;SDS011;24821;51.988;6.020;2022-07-29T15:09:15;4.80;;;4.45;;
39066;SDS011;24821;51.988;6.020;2022-07-29T15:11:40;4.43;;;4.13;;
39066;SDS011;24821;51.988;6.020;2022-07-29T15:14:06;6.25;;;5.95;;
39066;SDS011;24821;51.988;6.020;2022-07-29T15:16:31;5.65;;;5.35;;
39066;SDS011;24821;51.988;6.020;2022-07-29T15:18:57;5.40;;;5.10;;
39066;SDS011;24821;51.988;6.020;2022-07-29T15:21:23;4.80;;;4.50;;
39066;SDS011;24821;51.988;6.020;2022-07-29T15:23:49;5.20;;;4.90;;
39066;SDS011;24821;51.988;6.020;2022-07-29T15:26:14;4.72;;;4.43;;
39066;SDS011;24821;51.988;6.020;2022-07-29T15:28:40;3.97;;;3.78;;
39066;SDS011;24821;51.988;6.020;2022-07-29T15:31:05;4.75;;;4.55;;